createdAt,value
2022-07-31T00:01:26.068Z,1.40
2022-07-31T00:06:30.034Z,1.35
2022-07-31T00:11:33.735Z,1.30
2022-07-31T00:16:38.625Z,1.40
2022-07-31T00:21:42.219Z,1.40
2022-07-31T00:26:45.807Z,1.30
2022-07-31T00:31:51.056Z,1.35
2022-07-31T00:36:54.648Z,1.30
2022-07-31T00:41:58.622Z,1.30
2022-07-31T00:47:04.794Z,1.10
2022-07-31T00:52:09.263Z,1.20
2022-07-31T00:57:13.620Z,1.33
2022-07-31T01:02:18.742Z,1.10
2022-07-31T01:07:22.308Z,1.40
2022-07-31T01:12:35.122Z,1.23
2022-07-31T01:17:41.543Z,1.27
2022-07-31T01:23:17.604Z,0.90
2022-07-31T01:29:03.542Z,1.00
2022-07-31T01:34:15.980Z,1.10
2022-07-31T01:39:21.124Z,1.20
2022-07-31T01:44:29.012Z,1.20
2022-07-31T01:49:34.423Z,1.20
2022-07-31T01:54:39.340Z,0.90
2022-07-31T01:59:47.582Z,1.10
2022-07-31T02:04:57.408Z,1.00
2022-07-31T02:10:01.279Z,1.10
2022-07-31T02:15:14.682Z,0.90
2022-07-31T02:20:21.803Z,1.08
2022-07-31T02:25:28.526Z,1.00
2022-07-31T02:30:38.884Z,1.10
2022-07-31T02:35:45.927Z,1.13
2022-07-31T02:40:56.664Z,1.00
2022-07-31T02:46:02.189Z,1.15
2022-07-31T02:51:06.936Z,1.00
2022-07-31T02:56:13.420Z,0.88
2022-07-31T03:06:23.632Z,0.95
2022-07-31T03:11:27.735Z,1.00
2022-07-31T03:16:34.156Z,0.90
2022-07-31T03:21:39.967Z,1.00
2022-07-31T03:26:44.189Z,0.90
2022-07-31T03:31:49.296Z,0.90
2022-07-31T03:36:53.743Z,0.70
2022-07-31T03:41:59.505Z,0.80
2022-07-31T03:47:04.987Z,0.80
2022-07-31T03:52:12.242Z,0.80
2022-07-31T03:57:17.920Z,1.03
2022-07-31T04:02:27.458Z,0.90
2022-07-31T04:07:40.253Z,0.80
2022-07-31T04:12:44.221Z,0.80
2022-07-31T04:17:49.480Z,0.80
2022-07-31T04:22:58.050Z,0.80
2022-07-31T04:28:24.665Z,0.70
2022-07-31T04:33:29.873Z,0.70
2022-07-31T04:38:33.501Z,0.70
2022-07-31T04:43:37.217Z,0.70
2022-07-31T04:48:43.576Z,0.75
2022-07-31T04:53:51.249Z,0.80
2022-07-31T04:58:56.778Z,0.70
2022-07-31T05:04:02.463Z,1.00
2022-07-31T05:09:09.415Z,0.80
2022-07-31T05:14:17.898Z,0.80
2022-07-31T05:19:29.673Z,1.10
2022-07-31T05:25:10.202Z,0.90
2022-07-31T05:30:15.019Z,1.00
2022-07-31T05:35:20.201Z,1.20
2022-07-31T05:40:24.079Z,1.20
2022-07-31T05:45:47.073Z,1.30
2022-07-31T05:50:53.298Z,1.10
2022-07-31T05:55:57.064Z,1.23
2022-07-31T06:01:17.496Z,1.30
2022-07-31T06:06:23.163Z,1.20
2022-07-31T06:11:27.462Z,1.33
2022-07-31T06:16:31.346Z,1.35
2022-07-31T06:21:36.547Z,1.38
2022-07-31T06:26:40.152Z,1.50
2022-07-31T06:31:43.894Z,1.40
2022-07-31T06:36:49.052Z,1.50
2022-07-31T06:41:55.340Z,1.55
2022-07-31T06:47:05.461Z,1.98
2022-07-31T06:52:33.841Z,1.73
2022-07-31T06:57:39.118Z,2.00
2022-07-31T07:02:43.335Z,2.10
2022-07-31T07:07:48.678Z,2.17
2022-07-31T07:12:54.176Z,2.30
2022-07-31T07:17:58.818Z,2.30
2022-07-31T07:23:19.367Z,2.35
2022-07-31T07:28:30.923Z,2.63
2022-07-31T07:33:41.167Z,2.77
2022-07-31T07:38:56.644Z,3.20
2022-07-31T07:44:00.680Z,3.55
2022-07-31T07:49:06.782Z,3.70
2022-07-31T07:54:11.964Z,3.33
2022-07-31T07:59:48.204Z,3.00
2022-07-31T08:05:17.828Z,2.85
2022-07-31T08:10:22.909Z,2.90
2022-07-31T08:15:32.375Z,2.55
2022-07-31T08:21:02.088Z,2.25
2022-07-31T08:26:08.706Z,2.40
2022-07-31T08:31:12.548Z,2.33
2022-07-31T08:36:29.308Z,2.03
2022-07-31T08:41:34.730Z,2.13
2022-07-31T08:46:41.354Z,2.10
2022-07-31T08:51:51.159Z,2.25
2022-07-31T08:57:27.215Z,2.03
2022-07-31T09:02:32.565Z,2.33
2022-07-31T09:08:06.597Z,2.13
2022-07-31T09:13:20.603Z,2.10
2022-07-31T09:18:27.230Z,2.10
2022-07-31T09:23:47.614Z,2.17
2022-07-31T09:28:53.459Z,2.10
2022-07-31T09:33:57.351Z,2.17
2022-07-31T09:39:35.959Z,2.22
2022-07-31T09:44:59.814Z,2.40
2022-07-31T09:50:06.625Z,2.55
2022-07-31T09:55:17.067Z,2.92
2022-07-31T10:00:26.675Z,3.33
2022-07-31T10:05:31.877Z,10.95
2022-07-31T10:10:38.752Z,16.92
2022-07-31T10:16:02.281Z,12.52
2022-07-31T10:21:39.128Z,14.82
2022-07-31T10:27:01.621Z,45.55
2022-07-31T10:32:09.013Z,127.75
2022-07-31T10:37:26.100Z,127.28
2022-07-31T10:43:20.518Z,58.23
2022-07-31T10:48:54.319Z,36.70
2022-07-31T10:54:42.197Z,25.45
2022-07-31T11:00:13.409Z,19.73
2022-07-31T11:06:01.096Z,12.68
2022-07-31T11:11:36.818Z,9.15
2022-07-31T11:17:00.869Z,7.70
2022-07-31T11:22:30.544Z,6.10
2022-07-31T11:27:36.531Z,4.55
2022-07-31T11:32:40.175Z,3.80
2022-07-31T11:37:56.943Z,3.53
2022-07-31T11:48:27.912Z,2.78
2022-07-31T11:53:41.582Z,2.80
2022-07-31T11:58:49.677Z,2.40
2022-07-31T12:03:53.933Z,2.45
2022-07-31T12:08:59.141Z,2.50
2022-07-31T12:14:02.849Z,2.22
2022-07-31T12:19:06.427Z,2.40
2022-07-31T12:24:15.874Z,2.27
2022-07-31T12:29:20.377Z,2.20
2022-07-31T12:34:32.081Z,2.00
2022-07-31T12:39:59.212Z,1.70
2022-07-31T12:45:19.200Z,1.85
2022-07-31T12:50:25.987Z,1.80
2022-07-31T12:55:34.764Z,1.63
2022-07-31T13:00:40.332Z,1.90
2022-07-31T13:05:44.085Z,1.70
2022-07-31T13:10:49.211Z,1.45
2022-07-31T13:15:53.490Z,1.70
2022-07-31T13:20:57.278Z,1.55
2022-07-31T13:26:02.352Z,1.83
2022-07-31T13:31:06.220Z,1.52
2022-07-31T13:36:10.044Z,1.27
2022-07-31T13:41:30.891Z,1.10
2022-07-31T13:46:34.537Z,1.20
2022-07-31T13:51:39.637Z,1.23
2022-07-31T13:56:44.798Z,1.20
2022-07-31T14:02:05.136Z,1.02
2022-07-31T14:07:09.819Z,0.93
2022-07-31T14:12:17.927Z,1.10
2022-07-31T14:17:21.464Z,0.90
2022-07-31T14:22:25.183Z,0.90
2022-07-31T14:27:30.503Z,0.80
2022-07-31T14:32:34.304Z,0.77
2022-07-31T14:37:38.149Z,0.95
2022-07-31T14:42:43.771Z,1.00
2022-07-31T14:47:47.446Z,0.90
2022-07-31T14:52:51.184Z,1.10
2022-07-31T14:57:56.397Z,1.00
2022-07-31T15:03:00.141Z,0.82
2022-07-31T15:08:04.061Z,1.10
2022-07-31T15:13:09.106Z,0.90
2022-07-31T15:18:12.948Z,0.82
2022-07-31T15:23:16.529Z,0.90
2022-07-31T15:28:21.613Z,0.90
2022-07-31T15:33:25.392Z,1.10
2022-07-31T15:38:29.191Z,0.90
2022-07-31T15:43:37.568Z,0.90
2022-07-31T15:48:45.223Z,0.85
2022-07-31T15:53:48.966Z,0.90
2022-07-31T15:58:54.319Z,0.88
2022-07-31T16:03:57.942Z,0.82
2022-07-31T16:09:03.107Z,0.80
2022-07-31T16:14:10.388Z,0.90
2022-07-31T16:24:20.343Z,0.80
2022-07-31T16:29:57.871Z,0.90
2022-07-31T16:34:53.330Z,0.80
2022-07-31T16:39:59.784Z,0.80
2022-07-31T16:45:06.128Z,0.77
2022-07-31T16:50:11.004Z,0.73
2022-07-31T16:55:14.609Z,0.80
2022-07-31T17:00:20.062Z,0.80
2022-07-31T17:05:23.781Z,0.80
2022-07-31T17:10:27.978Z,0.90
2022-07-31T17:15:34.271Z,0.80
2022-07-31T17:20:39.417Z,0.80
2022-07-31T17:25:47.269Z,0.90
2022-07-31T17:30:54.653Z,0.80
2022-07-31T17:35:59.583Z,0.90
2022-07-31T17:41:04.384Z,0.90
2022-07-31T17:46:17.388Z,0.85
2022-07-31T17:51:26.008Z,1.00
2022-07-31T17:56:30.607Z,1.00
2022-07-31T18:01:36.516Z,1.10
2022-07-31T18:06:40.354Z,1.08
2022-07-31T18:11:44.134Z,0.80
2022-07-31T18:16:49.612Z,0.80
2022-07-31T18:21:55.881Z,0.80
2022-07-31T18:26:59.544Z,0.80
2022-07-31T18:32:05.452Z,0.80
2022-07-31T18:37:09.301Z,0.75
2022-07-31T18:42:13.023Z,0.80
2022-07-31T18:47:18.138Z,0.95
2022-07-31T18:52:21.766Z,0.80
2022-07-31T18:57:25.293Z,0.70
2022-07-31T19:02:30.412Z,0.80
2022-07-31T19:07:37.319Z,0.90
2022-07-31T19:12:41.042Z,0.80
2022-07-31T19:17:46.194Z,0.70
2022-07-31T19:22:50.173Z,0.70
2022-07-31T19:27:53.838Z,0.70
2022-07-31T19:33:01.172Z,0.77
2022-07-31T19:38:05.521Z,0.73
2022-07-31T19:43:10.303Z,0.70
2022-07-31T19:48:15.542Z,0.60
2022-07-31T19:53:19.158Z,0.70
2022-07-31T19:58:24.059Z,0.77
2022-07-31T20:03:29.696Z,0.70
2022-07-31T20:08:34.051Z,0.80
2022-07-31T20:13:38.757Z,1.00
2022-07-31T20:18:44.166Z,1.10
2022-07-31T20:23:49.078Z,0.90
2022-07-31T20:28:52.941Z,0.90
2022-07-31T20:33:58.439Z,1.00
2022-07-31T20:39:01.973Z,1.00
2022-07-31T20:44:06.240Z,0.90
2022-07-31T20:49:19.588Z,0.90
2022-07-31T20:54:35.130Z,1.00
2022-07-31T20:59:38.973Z,0.90
2022-07-31T21:04:44.116Z,0.90
2022-07-31T21:09:48.437Z,1.00
2022-07-31T21:14:52.068Z,0.90
2022-07-31T21:19:56.995Z,0.90
2022-07-31T21:25:04.452Z,0.90
2022-07-31T21:30:10.406Z,0.90
2022-07-31T21:35:17.275Z,0.93
2022-07-31T21:40:41.352Z,0.87
2022-07-31T21:45:55.038Z,0.95
2022-07-31T21:51:02.307Z,0.90
2022-07-31T21:56:10.738Z,0.80
2022-07-31T22:01:15.415Z,0.80
2022-07-31T22:06:38.245Z,0.98
2022-07-31T22:11:41.808Z,1.00
2022-07-31T22:16:59.213Z,0.80
2022-07-31T22:22:05.388Z,1.02
2022-07-31T22:27:27.060Z,1.00
2022-07-31T22:32:31.395Z,1.00
2022-07-31T22:37:37.058Z,0.80
2022-07-31T22:42:41.140Z,0.80
2022-07-31T22:47:46.063Z,0.80
2022-07-31T22:52:51.048Z,0.70
2022-07-31T22:57:54.554Z,0.70
2022-07-31T23:02:58.266Z,0.80
2022-07-31T23:08:03.148Z,0.80
2022-07-31T23:13:06.637Z,0.70
2022-07-31T23:18:10.270Z,0.80
2022-07-31T23:23:15.130Z,0.73
2022-07-31T23:28:18.599Z,0.90
2022-07-31T23:33:22.169Z,0.82
2022-07-31T23:38:28.099Z,0.75
2022-07-31T23:43:31.718Z,0.80
2022-07-31T23:48:36.863Z,0.80
2022-07-31T23:53:44.435Z,0.80
2022-07-31T23:58:48.538Z,0.90
